createdAt,value
2022-07-30T00:01:53.218Z,25.55
2022-07-30T00:04:23.643Z,25.53
2022-07-30T00:06:54.136Z,25.54
2022-07-30T00:09:24.731Z,25.54
2022-07-30T00:11:55.356Z,25.56
2022-07-30T00:14:25.640Z,25.55
2022-07-30T00:16:56.971Z,25.58
2022-07-30T00:19:27.361Z,25.59
2022-07-30T00:21:57.776Z,25.62
2022-07-30T00:24:28.622Z,25.64
2022-07-30T00:26:59.662Z,25.66
2022-07-30T00:29:30.343Z,25.70
2022-07-30T00:32:00.840Z,25.76
2022-07-30T00:34:31.585Z,25.83
2022-07-30T00:37:02.841Z,25.86
2022-07-30T00:39:33.770Z,25.90
2022-07-30T00:42:06.524Z,25.92
2022-07-30T00:44:37.020Z,25.95
2022-07-30T00:47:11.600Z,26.00
2022-07-30T00:49:44.271Z,26.06
2022-07-30T00:52:15.506Z,26.09
2022-07-30T00:54:46.340Z,26.14
2022-07-30T00:57:17.142Z,26.16
2022-07-30T00:59:47.729Z,26.20
2022-07-30T01:02:18.510Z,26.22
2022-07-30T01:04:49.743Z,26.24
2022-07-30T01:07:24.085Z,26.26
2022-07-30T01:09:57.782Z,26.31
2022-07-30T01:12:29.365Z,26.36
2022-07-30T01:15:01.789Z,26.40
2022-07-30T01:17:32.734Z,26.45
2022-07-30T01:20:08.452Z,26.56
2022-07-30T01:22:50.985Z,26.60
2022-07-30T01:25:33.618Z,26.68
2022-07-30T01:28:18.430Z,26.70
2022-07-30T01:30:50.612Z,26.76
2022-07-30T01:33:22.996Z,26.89
2022-07-30T01:35:56.391Z,26.99
2022-07-30T01:38:31.261Z,27.09
2022-07-30T01:41:08.209Z,27.17
2022-07-30T01:43:41.493Z,27.24
2022-07-30T01:46:14.371Z,27.31
2022-07-30T01:48:47.760Z,27.41
2022-07-30T01:51:22.683Z,27.49
2022-07-30T01:53:55.802Z,27.56
2022-07-30T01:56:28.072Z,27.64
2022-07-30T01:59:01.250Z,27.75
2022-07-30T02:01:35.944Z,27.84
2022-07-30T02:04:07.512Z,27.88
2022-07-30T02:06:59.715Z,27.91
2022-07-30T02:09:39.534Z,27.97
2022-07-30T02:12:30.666Z,27.99
2022-07-30T02:15:16.960Z,28.04
2022-07-30T02:18:12.993Z,28.10
2022-07-30T02:20:49.613Z,28.14
2022-07-30T02:23:21.635Z,28.22
2022-07-30T02:25:55.156Z,28.26
2022-07-30T02:28:27.434Z,28.26
2022-07-30T02:31:02.907Z,28.28
2022-07-30T02:33:52.807Z,28.31
2022-07-30T02:36:26.034Z,28.31
2022-07-30T02:38:58.653Z,28.33
2022-07-30T02:41:33.962Z,28.28
2022-07-30T02:44:05.760Z,28.20
2022-07-30T02:46:43.156Z,28.16
2022-07-30T02:49:33.905Z,28.20
2022-07-30T02:52:06.942Z,28.22
2022-07-30T02:54:41.635Z,28.23
2022-07-30T02:57:14.887Z,28.21
2022-07-30T02:59:47.014Z,28.19
2022-07-30T03:02:29.484Z,28.22
2022-07-30T03:05:26.042Z,28.23
2022-07-30T03:08:07.131Z,28.26
2022-07-30T03:11:16.869Z,28.33
2022-07-30T03:17:21.578Z,28.49
2022-07-30T03:20:37.356Z,28.58
2022-07-30T03:24:00.300Z,28.66
2022-07-30T03:26:23.854Z,28.77
2022-07-30T03:29:09.738Z,28.83
2022-07-30T03:32:09.018Z,28.88
2022-07-30T03:38:07.762Z,28.97
2022-07-30T03:41:15.397Z,29.00
2022-07-30T03:43:52.594Z,29.06
2022-07-30T03:46:24.734Z,29.11
2022-07-30T03:48:57.068Z,29.14
2022-07-30T03:51:32.894Z,29.20
2022-07-30T03:54:13.394Z,29.25
2022-07-30T03:56:45.158Z,29.31
2022-07-30T03:59:30.203Z,29.34
2022-07-30T04:02:07.355Z,29.38
2022-07-30T04:04:56.796Z,29.41
2022-07-30T04:07:34.082Z,29.45
2022-07-30T04:10:15.931Z,29.45
2022-07-30T04:13:10.733Z,29.49
2022-07-30T04:16:37.717Z,29.47
2022-07-30T04:18:50.803Z,29.46
2022-07-30T04:21:25.214Z,29.48
2022-07-30T04:24:08.189Z,29.53
2022-07-30T04:26:46.185Z,29.59
2022-07-30T04:29:24.291Z,29.61
2022-07-30T04:31:58.744Z,29.67
2022-07-30T04:35:07.788Z,29.71
2022-07-30T04:38:14.239Z,29.73
2022-07-30T04:40:58.075Z,29.81
2022-07-30T04:43:34.121Z,29.90
2022-07-30T04:46:05.302Z,29.94
2022-07-30T04:48:39.010Z,29.96
2022-07-30T04:51:22.140Z,29.98
2022-07-30T04:53:58.171Z,29.98
2022-07-30T04:56:38.915Z,29.98
2022-07-30T04:59:26.943Z,29.99
2022-07-30T05:02:20.570Z,29.97
2022-07-30T05:05:05.248Z,29.96
2022-07-30T05:07:49.537Z,29.99
2022-07-30T05:10:38.770Z,30.03
2022-07-30T05:13:16.227Z,30.07
2022-07-30T05:15:51.039Z,30.11
2022-07-30T05:18:46.273Z,30.13
2022-07-30T05:21:35.501Z,30.10
2022-07-30T05:24:33.043Z,30.10
2022-07-30T05:30:07.039Z,30.14
2022-07-30T05:32:47.519Z,30.17
2022-07-30T05:35:21.764Z,30.20
2022-07-30T05:37:52.979Z,30.15
2022-07-30T05:40:24.056Z,30.19
2022-07-30T05:43:06.498Z,30.23
2022-07-30T05:45:40.182Z,30.25
2022-07-30T05:48:11.603Z,30.28
2022-07-30T05:50:48.471Z,30.35
2022-07-30T05:53:23.373Z,30.38
2022-07-30T05:56:22.314Z,30.43
2022-07-30T05:59:10.815Z,30.44
2022-07-30T06:02:13.527Z,30.45
2022-07-30T06:05:00.505Z,30.47
2022-07-30T06:10:29.127Z,30.52
2022-07-30T06:13:01.194Z,30.56
2022-07-30T06:15:42.135Z,30.59
2022-07-30T06:18:18.144Z,30.64
2022-07-30T06:21:02.229Z,30.66
2022-07-30T06:24:13.109Z,30.69
2022-07-30T06:27:44.778Z,30.65
2022-07-30T06:30:50.889Z,30.64
2022-07-30T06:33:41.118Z,30.65
2022-07-30T06:36:15.071Z,30.67
2022-07-30T06:39:07.898Z,30.73
2022-07-30T06:42:14.666Z,30.81
2022-07-30T06:48:51.660Z,30.89
2022-07-30T06:51:30.827Z,30.91
2022-07-30T06:54:07.425Z,30.88
2022-07-30T06:56:41.162Z,30.90
2022-07-30T06:59:26.775Z,30.93
2022-07-30T07:02:21.389Z,30.91
2022-07-30T07:08:25.854Z,30.91
2022-07-30T07:14:25.645Z,30.93
2022-07-30T07:20:19.144Z,31.01
2022-07-30T07:23:49.746Z,30.97
2022-07-30T07:39:31.496Z,31.12
2022-07-30T07:42:23.082Z,31.17
2022-07-30T07:49:09.794Z,31.15
2022-07-30T07:55:59.836Z,31.11
2022-07-30T08:06:00.812Z,30.88
2022-07-30T08:09:09.484Z,30.80
2022-07-30T08:15:28.267Z,30.80
2022-07-30T08:18:22.336Z,30.82
2022-07-30T08:21:16.939Z,30.86
2022-07-30T08:23:48.498Z,30.87
2022-07-30T08:26:19.708Z,30.86
2022-07-30T08:28:56.944Z,30.84
2022-07-30T08:31:33.773Z,30.87
2022-07-30T08:34:08.410Z,30.90
2022-07-30T08:36:46.571Z,30.90
2022-07-30T08:42:44.224Z,30.96
2022-07-30T08:45:34.828Z,30.98
2022-07-30T08:48:36.315Z,30.97
2022-07-30T08:51:08.201Z,30.91
2022-07-30T08:53:54.631Z,30.99
2022-07-30T08:56:59.928Z,31.01
2022-07-30T09:00:28.014Z,31.05
2022-07-30T09:18:45.809Z,31.30
2022-07-30T09:21:25.917Z,31.27
2022-07-30T09:24:57.025Z,31.25
2022-07-30T09:28:03.554Z,31.27
2022-07-30T09:44:56.530Z,31.01
2022-07-30T09:47:40.619Z,30.97
2022-07-30T09:50:29.586Z,30.81
2022-07-30T09:53:12.031Z,30.67
2022-07-30T09:55:46.469Z,30.61
2022-07-30T09:58:27.274Z,30.54
2022-07-30T10:01:06.298Z,30.49
2022-07-30T10:04:14.703Z,30.43
2022-07-30T10:07:01.167Z,30.40
2022-07-30T10:09:49.833Z,30.38
2022-07-30T10:12:24.848Z,30.34
2022-07-30T10:14:57.926Z,30.25
2022-07-30T10:17:28.817Z,30.20
2022-07-30T10:20:22.022Z,30.15
2022-07-30T10:23:15.523Z,30.08
2022-07-30T10:29:55.240Z,29.94
2022-07-30T10:32:52.583Z,29.88
2022-07-30T10:39:17.922Z,29.79
2022-07-30T10:43:19.164Z,29.72
2022-07-30T10:49:22.842Z,29.62
2022-07-30T10:51:56.712Z,29.58
2022-07-30T10:54:47.054Z,29.56
2022-07-30T10:57:22.556Z,29.50
2022-07-30T11:00:04.046Z,29.47
2022-07-30T11:02:36.677Z,29.40
2022-07-30T11:08:36.978Z,29.32
2022-07-30T11:12:01.401Z,29.27
2022-07-30T11:14:22.566Z,29.21
2022-07-30T11:16:54.564Z,29.18
2022-07-30T11:19:55.752Z,29.13
2022-07-30T11:22:26.975Z,29.10
2022-07-30T11:24:58.065Z,29.04
2022-07-30T11:27:48.522Z,29.02
2022-07-30T11:30:20.092Z,28.98
2022-07-30T11:32:51.706Z,28.93
2022-07-30T11:35:34.323Z,28.90
2022-07-30T11:38:13.704Z,28.86
2022-07-30T11:40:53.357Z,28.81
2022-07-30T11:43:40.903Z,28.76
2022-07-30T11:46:29.282Z,28.72
2022-07-30T11:49:04.379Z,28.68
2022-07-30T11:51:45.872Z,28.64
2022-07-30T11:54:17.013Z,28.59
2022-07-30T11:56:55.639Z,28.59
2022-07-30T11:59:26.284Z,28.53
2022-07-30T12:02:03.145Z,28.49
2022-07-30T12:04:33.899Z,28.46
2022-07-30T12:07:04.716Z,28.42
2022-07-30T12:09:37.839Z,28.40
2022-07-30T12:12:27.026Z,28.39
2022-07-30T12:15:06.686Z,28.33
2022-07-30T12:18:00.784Z,28.31
2022-07-30T12:20:51.549Z,28.28
2022-07-30T12:23:33.338Z,28.25
2022-07-30T12:26:04.665Z,28.20
2022-07-30T12:28:38.109Z,28.16
2022-07-30T12:31:08.800Z,28.12
2022-07-30T12:33:42.343Z,28.11
2022-07-30T12:36:25.607Z,28.08
2022-07-30T12:38:59.571Z,28.05
2022-07-30T12:41:59.576Z,28.02
2022-07-30T12:44:46.467Z,27.99
2022-07-30T12:47:32.402Z,27.97
2022-07-30T12:50:07.813Z,27.94
2022-07-30T12:52:43.085Z,27.89
2022-07-30T12:55:14.172Z,27.89
2022-07-30T12:58:09.251Z,27.87
2022-07-30T13:00:56.997Z,27.86
2022-07-30T13:03:44.114Z,27.83
2022-07-30T13:06:22.679Z,27.83
2022-07-30T13:09:01.533Z,27.82
2022-07-30T13:11:49.217Z,27.80
2022-07-30T13:14:26.556Z,27.76
2022-07-30T13:17:02.718Z,27.75
2022-07-30T13:19:38.245Z,27.75
2022-07-30T13:22:17.224Z,27.74
2022-07-30T13:24:48.251Z,27.74
2022-07-30T13:27:27.656Z,27.73
2022-07-30T13:30:08.094Z,27.73
2022-07-30T13:32:40.693Z,27.71
2022-07-30T13:35:12.000Z,27.70
2022-07-30T13:37:48.549Z,27.69
2022-07-30T13:40:25.361Z,27.68
2022-07-30T13:42:57.275Z,27.68
2022-07-30T13:45:27.971Z,27.67
2022-07-30T13:48:04.681Z,27.67
2022-07-30T13:50:44.532Z,27.65
2022-07-30T13:53:25.596Z,27.64
2022-07-30T13:55:56.674Z,27.63
2022-07-30T13:58:42.079Z,27.58
2022-07-30T14:01:17.665Z,27.61
2022-07-30T14:04:02.723Z,27.60
2022-07-30T14:12:57.878Z,27.53
2022-07-30T14:16:02.213Z,27.53
2022-07-30T14:19:42.229Z,27.51
2022-07-30T14:22:39.736Z,27.45
2022-07-30T14:26:02.209Z,27.45
2022-07-30T14:35:30.071Z,27.40
2022-07-30T14:38:17.165Z,27.37
2022-07-30T14:40:48.541Z,27.38
2022-07-30T14:48:12.174Z,27.33
2022-07-30T14:51:13.382Z,27.32
2022-07-30T14:53:51.568Z,27.28
2022-07-30T15:00:52.257Z,27.28
2022-07-30T15:03:10.360Z,27.25
2022-07-30T15:05:58.670Z,27.26
2022-07-30T15:09:13.483Z,27.24
2022-07-30T15:13:23.518Z,27.23
2022-07-30T15:15:17.089Z,27.21
2022-07-30T15:18:39.084Z,27.18
2022-07-30T15:21:31.310Z,27.14
2022-07-30T15:24:16.528Z,27.15
2022-07-30T15:26:59.594Z,27.13
2022-07-30T15:29:45.743Z,27.13
2022-07-30T15:32:18.527Z,27.08
2022-07-30T15:34:49.243Z,27.11
2022-07-30T15:38:13.691Z,27.11
2022-07-30T15:40:47.034Z,27.08
2022-07-30T15:43:21.216Z,27.06
2022-07-30T15:45:55.886Z,27.05
2022-07-30T15:48:45.201Z,27.02
2022-07-30T15:51:37.319Z,27.02
2022-07-30T15:54:23.965Z,26.98
2022-07-30T15:57:21.927Z,26.96
2022-07-30T15:59:59.840Z,26.95
2022-07-30T16:02:31.331Z,26.93
2022-07-30T16:05:02.223Z,26.91
2022-07-30T16:07:36.314Z,26.89
2022-07-30T16:10:08.258Z,26.89
2022-07-30T16:13:29.607Z,26.89
2022-07-30T16:19:45.096Z,26.86
2022-07-30T16:23:54.353Z,26.87
2022-07-30T16:26:13.708Z,26.86
2022-07-30T16:32:30.392Z,26.85
2022-07-30T16:35:24.663Z,26.85
2022-07-30T16:38:09.029Z,26.82
2022-07-30T16:40:40.264Z,26.80
2022-07-30T16:43:13.130Z,26.81
2022-07-30T16:46:35.344Z,26.82
2022-07-30T16:49:55.630Z,26.80
2022-07-30T16:53:13.776Z,26.78
2022-07-30T16:55:52.662Z,26.78
2022-07-30T16:58:32.907Z,26.76
2022-07-30T17:01:03.613Z,26.75
2022-07-30T17:03:37.375Z,26.75
2022-07-30T17:06:08.114Z,26.74
2022-07-30T17:08:38.653Z,26.73
2022-07-30T17:11:11.702Z,26.70
2022-07-30T17:14:01.250Z,26.70
2022-07-30T17:16:32.139Z,26.69
2022-07-30T17:19:08.178Z,26.70
2022-07-30T17:21:39.804Z,26.69
2022-07-30T17:24:15.009Z,26.67
2022-07-30T17:26:46.623Z,26.65
2022-07-30T17:29:18.602Z,26.66
2022-07-30T17:31:49.743Z,26.64
2022-07-30T17:34:24.772Z,26.65
2022-07-30T17:36:55.054Z,26.61
2022-07-30T17:40:28.175Z,26.62
2022-07-30T17:42:17.016Z,26.58
2022-07-30T17:44:47.865Z,26.56
2022-07-30T17:47:18.688Z,26.57
2022-07-30T17:49:50.805Z,26.55
2022-07-30T17:52:26.428Z,26.57
2022-07-30T17:55:00.893Z,26.57
2022-07-30T17:57:33.443Z,26.55
2022-07-30T18:00:04.682Z,26.55
2022-07-30T18:02:38.172Z,26.55
2022-07-30T18:05:12.020Z,26.54
2022-07-30T18:07:43.891Z,26.54
2022-07-30T18:10:26.014Z,26.52
2022-07-30T18:12:57.876Z,26.54
2022-07-30T18:15:31.783Z,26.57
2022-07-30T18:18:07.364Z,26.56
2022-07-30T18:20:48.392Z,26.58
2022-07-30T18:23:20.836Z,26.57
2022-07-30T18:25:54.423Z,26.56
2022-07-30T18:28:25.592Z,26.57
2022-07-30T18:30:56.788Z,26.58
2022-07-30T18:33:27.066Z,26.56
2022-07-30T18:35:58.503Z,26.53
2022-07-30T18:38:29.269Z,26.53
2022-07-30T18:41:00.235Z,26.53
2022-07-30T18:43:32.197Z,26.52
2022-07-30T18:46:19.108Z,26.52
2022-07-30T18:48:53.657Z,26.51
2022-07-30T18:51:34.880Z,26.47
2022-07-30T18:54:09.318Z,26.48
2022-07-30T18:56:47.469Z,26.47
2022-07-30T18:59:18.357Z,26.43
2022-07-30T19:01:50.245Z,26.39
2022-07-30T19:04:20.939Z,26.40
2022-07-30T19:06:52.019Z,26.39
2022-07-30T19:09:41.981Z,26.38
2022-07-30T19:12:13.413Z,26.35
2022-07-30T19:14:48.347Z,26.32
2022-07-30T19:17:19.331Z,26.32
2022-07-30T19:19:53.765Z,26.32
2022-07-30T19:22:30.024Z,26.31
2022-07-30T19:25:01.247Z,26.30
2022-07-30T19:27:31.989Z,26.28
2022-07-30T19:30:06.303Z,26.26
2022-07-30T19:32:40.210Z,26.25
2022-07-30T19:35:14.469Z,26.24
2022-07-30T19:37:45.868Z,26.23
2022-07-30T19:40:16.894Z,26.23
2022-07-30T19:42:50.595Z,26.20
2022-07-30T19:45:27.133Z,26.20
2022-07-30T19:48:28.399Z,26.26
2022-07-30T19:51:01.499Z,26.22
2022-07-30T19:53:34.024Z,26.25
2022-07-30T19:56:08.249Z,26.24
2022-07-30T19:58:43.188Z,26.22
2022-07-30T20:01:17.155Z,26.23
2022-07-30T20:03:49.806Z,26.22
2022-07-30T20:06:20.851Z,26.21
2022-07-30T20:08:55.402Z,26.21
2022-07-30T20:11:36.009Z,26.20
2022-07-30T20:14:10.145Z,26.20
2022-07-30T20:16:41.565Z,26.18
2022-07-30T20:19:15.555Z,26.19
2022-07-30T20:21:56.340Z,26.18
2022-07-30T20:24:55.076Z,26.19
2022-07-30T20:27:36.539Z,26.19
2022-07-30T20:30:11.503Z,26.18
2022-07-30T20:32:46.986Z,26.14
2022-07-30T20:38:10.233Z,26.20
2022-07-30T20:40:44.076Z,26.21
2022-07-30T20:43:14.973Z,26.18
2022-07-30T20:45:48.293Z,26.16
2022-07-30T20:48:25.697Z,26.18
2022-07-30T20:50:56.408Z,26.11
2022-07-30T20:53:33.614Z,26.13
2022-07-30T20:56:07.965Z,26.13
2022-07-30T20:58:39.014Z,26.16
2022-07-30T21:01:15.543Z,26.14
2022-07-30T21:03:49.070Z,26.17
2022-07-30T21:06:31.081Z,26.17
2022-07-30T21:09:09.577Z,26.17
2022-07-30T21:11:50.411Z,26.20
2022-07-30T21:14:25.987Z,26.18
2022-07-30T21:16:56.645Z,26.18
2022-07-30T21:19:29.115Z,26.18
2022-07-30T21:22:01.070Z,26.18
2022-07-30T21:24:33.333Z,26.16
2022-07-30T21:27:04.683Z,26.16
2022-07-30T21:29:34.872Z,26.16
2022-07-30T21:32:08.498Z,26.13
2022-07-30T21:34:40.326Z,26.14
2022-07-30T21:37:15.445Z,26.14
2022-07-30T21:39:47.301Z,26.14
2022-07-30T21:42:18.087Z,26.15
2022-07-30T21:44:57.333Z,26.13
2022-07-30T21:47:28.905Z,26.10
2022-07-30T21:50:02.996Z,26.12
2022-07-30T21:52:37.604Z,26.13
2022-07-30T21:55:08.496Z,26.13
2022-07-30T21:57:44.002Z,26.16
2022-07-30T22:00:23.930Z,26.16
2022-07-30T22:03:04.169Z,26.13
2022-07-30T22:05:49.273Z,26.17
2022-07-30T22:08:20.334Z,26.18
2022-07-30T22:10:51.718Z,26.18
2022-07-30T22:13:22.695Z,26.18
2022-07-30T22:15:54.465Z,26.20
2022-07-30T22:18:25.378Z,26.17
2022-07-30T22:20:57.017Z,26.20
2022-07-30T22:23:31.007Z,26.21
2022-07-30T22:26:05.081Z,26.22
2022-07-30T22:28:36.710Z,26.19
2022-07-30T22:31:15.012Z,26.20
2022-07-30T22:33:46.886Z,26.22
2022-07-30T22:36:24.623Z,26.24
2022-07-30T22:38:58.731Z,26.26
2022-07-30T22:41:29.806Z,26.27
2022-07-30T22:44:01.371Z,26.30
2022-07-30T22:46:32.044Z,26.30
2022-07-30T22:49:02.640Z,26.31
2022-07-30T22:52:01.861Z,26.31
2022-07-30T22:54:24.210Z,26.34
2022-07-30T22:56:54.739Z,26.35
2022-07-30T22:59:57.924Z,26.37
2022-07-30T23:02:18.852Z,26.36
2022-07-30T23:04:51.275Z,26.37
2022-07-30T23:07:29.175Z,26.40
2022-07-30T23:10:18.184Z,26.42
2022-07-30T23:12:18.231Z,26.17
2022-07-30T23:12:53.702Z,26.47
2022-07-30T23:15:24.815Z,26.49
2022-07-30T23:17:55.344Z,26.52
2022-07-30T23:20:26.246Z,26.55
2022-07-30T23:22:56.419Z,26.57
2022-07-30T23:25:38.553Z,26.56
2022-07-30T23:28:09.748Z,26.63
2022-07-30T23:30:46.785Z,26.63
2022-07-30T23:33:23.056Z,26.70
2022-07-30T23:35:54.456Z,26.74
2022-07-30T23:38:29.462Z,26.82
2022-07-30T23:41:05.681Z,26.88
2022-07-30T23:43:36.919Z,26.95
2022-07-30T23:46:11.006Z,26.99
2022-07-30T23:48:42.665Z,26.99
2022-07-30T23:51:13.736Z,27.02
2022-07-30T23:53:44.971Z,27.04
2022-07-30T23:56:19.839Z,27.08
2022-07-30T23:58:50.839Z,27.11
